Time;durP1;ratioP1;P1;durP2;ratioP2;P2;SDS_P1;SDS_P2;PMS_P1;PMS_P2;Temp;Humidity;BMP_temperature;BMP_pressure;BME280_temperature;BME280_humidity;BME280_pressure;Samples;Min_cycle;Max_cycle;Signal;HPM_P1;HPM_P2
2023/12/15 00:02:23;;;;;;;1.60;1.00;;;22.30;54.20;;;;;;4871510;28;94454;-83
2023/12/15 00:04:48;;;;;;;1.77;1.27;;;22.30;54.30;;;;;;4856089;28;93074;-83
2023/12/15 00:07:14;;;;;;;2.40;1.17;;;22.20;54.20;;;;;;4858939;28;92757;-82
2023/12/15 00:09:39;;;;;;;1.30;1.20;;;22.30;54.30;;;;;;4876648;28;93250;-83
2023/12/15 00:12:05;;;;;;;1.50;1.10;;;22.20;54.30;;;;;;4857547;28;96010;-83
2023/12/15 00:14:31;;;;;;;2.28;1.48;;;22.20;54.20;;;;;;4876143;28;92440;-84
2023/12/15 00:16:56;;;;;;;1.73;1.50;;;22.20;54.30;;;;;;4873709;28;91528;-81
2023/12/15 00:19:22;;;;;;;1.45;1.20;;;22.20;54.50;;;;;;4873919;28;96824;-83
2023/12/15 00:21:48;;;;;;;1.85;1.42;;;22.10;54.30;;;;;;4873445;28;93228;-83
2023/12/15 00:24:13;;;;;;;1.90;1.38;;;22.10;54.40;;;;;;4857290;28;93608;-83
2023/12/15 00:26:39;;;;;;;1.80;1.10;;;22.10;54.40;;;;;;4874603;28;92987;-82
2023/12/15 00:29:05;;;;;;;2.28;1.38;;;22.10;54.40;;;;;;4876080;28;94374;-83
2023/12/15 00:31:31;;;;;;;1.10;1.00;;;22.10;54.50;;;;;;4876561;28;94276;-83
2023/12/15 00:33:56;;;;;;;1.98;1.42;;;22.10;54.50;;;;;;4876145;28;93026;-83
2023/12/15 00:36:22;;;;;;;1.38;1.27;;;22.10;54.50;;;;;;4875196;28;92901;-84
2023/12/15 00:38:47;;;;;;;1.35;1.20;;;22.00;54.30;;;;;;4873269;28;94874;-83
2023/12/15 00:41:13;;;;;;;1.13;0.90;;;22.00;54.30;;;;;;4879187;28;93394;-84
2023/12/15 00:43:39;;;;;;;1.20;1.10;;;22.00;54.40;;;;;;4876861;28;92436;-82
2023/12/15 00:46:04;;;;;;;1.67;1.10;;;22.00;54.90;;;;;;4875215;28;92964;-84
2023/12/15 00:48:30;;;;;;;2.40;1.33;;;22.00;54.30;;;;;;4853231;28;98377;-84
2023/12/15 00:50:56;;;;;;;2.00;1.35;;;22.00;54.30;;;;;;4857844;28;94435;-84
2023/12/15 00:53:21;;;;;;;2.00;1.23;;;21.90;54.30;;;;;;4873892;28;92292;-83
2023/12/15 00:55:47;;;;;;;3.28;1.58;;;21.90;54.30;;;;;;4871709;28;94374;-84
2023/12/15 00:58:15;;;;;;;1.60;1.25;;;21.90;54.20;;;;;;4875817;28;93642;-83
2023/12/15 01:00:41;;;;;;;1.30;1.20;;;21.90;54.30;;;;;;4855296;28;96070;-82
2023/12/15 01:03:07;;;;;;;3.60;1.15;;;21.90;54.40;;;;;;4875181;28;92571;-83
2023/12/15 01:05:32;;;;;;;1.33;1.10;;;21.90;54.30;;;;;;4872145;28;91932;-82
2023/12/15 01:07:58;;;;;;;1.20;1.10;;;21.80;54.40;;;;;;4874473;28;93284;-83
2023/12/15 01:10:24;;;;;;;1.45;1.00;;;21.80;54.50;;;;;;4871479;28;93360;-82
2023/12/15 01:12:49;;;;;;;2.33;1.48;;;21.80;54.40;;;;;;4860343;28;93597;-83
2023/12/15 01:15:15;;;;;;;2.20;1.00;;;21.80;54.40;;;;;;4874903;28;93149;-82
2023/12/15 01:17:41;;;;;;;1.40;1.17;;;21.80;54.40;;;;;;4874347;28;94430;-82
2023/12/15 01:20:07;;;;;;;1.38;1.20;;;21.80;54.50;;;;;;4874349;28;93109;-83
2023/12/15 01:22:32;;;;;;;1.33;1.10;;;21.80;54.30;;;;;;4871144;28;93151;-83
2023/12/15 01:24:58;;;;;;;2.03;1.17;;;21.80;54.40;;;;;;4874136;28;93000;-84
2023/12/15 01:27:24;;;;;;;1.27;1.10;;;21.70;54.40;;;;;;4858530;28;93701;-83
2023/12/15 01:29:49;;;;;;;1.52;1.17;;;21.70;54.40;;;;;;4856533;28;94226;-84
2023/12/15 01:32:15;;;;;;;1.58;1.20;;;21.70;54.20;;;;;;4872462;28;92542;-82
2023/12/15 01:34:41;;;;;;;1.92;1.27;;;21.70;54.30;;;;;;4873360;28;92635;-84
2023/12/15 01:37:07;;;;;;;1.77;1.23;;;21.70;54.40;;;;;;4876149;28;94532;-82
2023/12/15 01:39:33;;;;;;;3.20;1.08;;;21.70;54.40;;;;;;4872496;28;94288;-82
2023/12/15 01:41:58;;;;;;;1.55;1.05;;;21.70;54.30;;;;;;4856893;28;92775;-84
2023/12/15 01:44:24;;;;;;;1.70;1.25;;;21.60;54.40;;;;;;4870649;28;92230;-82
2023/12/15 01:46:50;;;;;;;2.00;1.33;;;21.60;54.20;;;;;;4873952;28;94244;-84
2023/12/15 01:49:15;;;;;;;1.90;1.45;;;21.60;54.30;;;;;;4843809;28;93798;-83
2023/12/15 01:51:41;;;;;;;2.40;1.38;;;21.60;54.50;;;;;;4874536;28;93226;-83
2023/12/15 01:54:07;;;;;;;2.28;1.38;;;21.60;54.30;;;;;;4873864;28;91610;-82
2023/12/15 01:56:33;;;;;;;1.85;1.20;;;21.60;54.10;;;;;;4872619;28;93636;-83
2023/12/15 02:01:24;;;;;;;1.70;1.35;;;21.60;54.20;;;;;;4843893;28;94276;-82
2023/12/15 02:03:49;;;;;;;1.83;1.20;;;21.60;54.30;;;;;;4853613;28;92553;-83
2023/12/15 02:06:15;;;;;;;1.25;1.10;;;21.60;54.20;;;;;;4857335;28;94265;-84
2023/12/15 02:08:44;;;;;;;1.73;1.20;;;21.50;54.30;;;;;;4854195;28;93611;-84
2023/12/15 02:11:12;;;;;;;1.15;1.05;;;21.50;54.40;;;;;;4855180;28;93118;-84
2023/12/15 02:13:37;;;;;;;1.60;1.00;;;21.60;54.30;;;;;;4874484;28;91974;-82
2023/12/15 02:16:03;;;;;;;1.42;1.25;;;21.50;54.30;;;;;;4871114;28;93667;-82
2023/12/15 02:18:29;;;;;;;1.80;1.13;;;21.50;54.20;;;;;;4857744;28;93473;-83
2023/12/15 02:20:56;;;;;;;1.20;0.98;;;21.50;54.30;;;;;;4856423;28;92640;-82
2023/12/15 02:23:21;;;;;;;1.13;1.00;;;21.50;54.30;;;;;;4856334;28;92910;-83
2023/12/15 02:25:47;;;;;;;1.33;1.20;;;21.50;54.30;;;;;;4853573;28;94637;-83
2023/12/15 02:28:13;;;;;;;1.80;1.52;;;21.40;54.30;;;;;;4874377;28;92987;-82
2023/12/15 02:30:38;;;;;;;1.25;1.13;;;21.50;54.30;;;;;;4871172;28;92159;-82
2023/12/15 02:33:04;;;;;;;1.40;1.10;;;21.50;54.50;;;;;;4874085;28;92933;-82
2023/12/15 02:35:30;;;;;;;1.85;1.38;;;21.40;54.30;;;;;;4872537;28;93623;-82
2023/12/15 02:37:55;;;;;;;1.50;1.33;;;21.40;54.50;;;;;;4855081;28;95805;-84
2023/12/15 02:40:21;;;;;;;1.17;1.08;;;21.40;54.40;;;;;;4856675;28;92445;-82
2023/12/15 02:42:47;;;;;;;1.35;1.10;;;21.40;54.50;;;;;;4870121;28;92338;-84
2023/12/15 02:45:12;;;;;;;1.38;1.08;;;21.40;54.50;;;;;;4870625;28;93293;-82
2023/12/15 02:47:38;;;;;;;1.30;1.10;;;21.40;54.30;;;;;;4872293;28;93222;-82
2023/12/15 02:50:04;;;;;;;2.63;1.40;;;21.30;54.40;;;;;;4854130;28;93873;-82
2023/12/15 02:52:29;;;;;;;1.58;1.02;;;21.30;54.20;;;;;;4869313;28;92718;-83
2023/12/15 02:54:55;;;;;;;2.10;1.25;;;21.30;54.40;;;;;;4854089;28;95205;-84
2023/12/15 02:57:21;;;;;;;1.73;1.23;;;21.30;54.30;;;;;;4870062;28;93476;-82
2023/12/15 02:59:46;;;;;;;1.55;0.95;;;21.30;54.40;;;;;;4857586;28;92812;-82
2023/12/15 03:02:12;;;;;;;1.13;1.00;;;21.30;54.50;;;;;;4859030;28;94572;-83
2023/12/15 03:04:38;;;;;;;1.00;0.90;;;21.30;54.40;;;;;;4871262;28;94357;-83
2023/12/15 03:07:06;;;;;;;1.30;1.20;;;21.30;54.40;;;;;;4873685;28;92891;-83
2023/12/15 03:09:32;;;;;;;1.33;1.00;;;21.30;54.60;;;;;;4852492;28;93060;-82
2023/12/15 03:11:58;;;;;;;1.13;1.02;;;21.30;54.50;;;;;;4869875;28;92221;-82
2023/12/15 03:14:24;;;;;;;1.20;1.00;;;21.30;54.40;;;;;;4870748;28;93901;-84
2023/12/15 03:16:49;;;;;;;1.50;1.00;;;21.20;54.40;;;;;;4854646;28;95959;-83
2023/12/15 03:19:15;;;;;;;1.30;1.00;;;21.20;54.50;;;;;;4869484;28;93023;-83
2023/12/15 03:21:41;;;;;;;1.42;1.02;;;21.20;54.50;;;;;;4855028;28;92502;-83
2023/12/15 03:24:06;;;;;;;1.17;1.02;;;21.20;54.40;;;;;;4853122;28;96441;-83
2023/12/15 03:26:32;;;;;;;1.67;1.08;;;21.20;54.30;;;;;;4872409;28;92873;-83
2023/12/15 03:28:57;;;;;;;1.40;1.25;;;21.20;54.50;;;;;;4856113;28;92417;-84
2023/12/15 03:31:23;;;;;;;1.13;1.00;;;21.20;54.40;;;;;;4854683;28;91944;-83
2023/12/15 03:33:49;;;;;;;1.65;1.08;;;21.20;54.30;;;;;;4871750;28;96038;-82
2023/12/15 03:36:14;;;;;;;1.30;1.20;;;21.20;54.40;;;;;;4869007;28;93551;-82
2023/12/15 03:38:40;;;;;;;1.25;0.90;;;21.20;54.50;;;;;;4875080;28;93513;-82
2023/12/15 03:41:06;;;;;;;1.13;1.02;;;21.10;54.40;;;;;;4878384;28;92573;-82
2023/12/15 03:43:31;;;;;;;2.53;1.15;;;21.20;54.50;;;;;;4873182;28;94555;-82
2023/12/15 03:45:57;;;;;;;1.60;1.10;;;21.10;54.40;;;;;;4873227;28;92886;-83
2023/12/15 03:48:23;;;;;;;1.40;1.20;;;21.10;54.40;;;;;;4878644;28;92763;-82
2023/12/15 03:50:48;;;;;;;1.15;1.05;;;21.10;54.50;;;;;;4875937;28;92515;-82
2023/12/15 03:53:14;;;;;;;1.92;1.15;;;21.10;54.50;;;;;;4874985;28;93957;-82
2023/12/15 03:55:40;;;;;;;1.40;1.25;;;21.10;54.50;;;;;;4877018;28;92788;-83
2023/12/15 03:58:05;;;;;;;1.10;1.00;;;21.10;54.50;;;;;;4875591;28;92277;-82
2023/12/15 04:00:31;;;;;;;1.13;1.02;;;21.10;54.50;;;;;;4876349;28;93215;-81
2023/12/15 04:02:57;;;;;;;1.30;0.93;;;21.10;54.50;;;;;;4871179;28;93570;-82
2023/12/15 04:05:22;;;;;;;1.92;0.95;;;21.10;54.50;;;;;;4853539;28;94277;-81
2023/12/15 04:07:48;;;;;;;1.63;1.10;;;21.10;54.30;;;;;;4876347;28;92330;-83
2023/12/15 04:10:13;;;;;;;1.42;0.70;;;21.10;54.40;;;;;;4872105;28;93062;-83
2023/12/15 04:12:39;;;;;;;1.63;1.05;;;21.00;54.30;;;;;;4873150;28;94391;-82
2023/12/15 04:15:08;;;;;;;1.40;1.10;;;21.00;54.50;;;;;;4874883;28;94745;-82
2023/12/15 04:17:34;;;;;;;1.30;1.20;;;21.00;54.30;;;;;;4874847;28;93194;-84
2023/12/15 04:19:59;;;;;;;1.40;1.20;;;21.00;54.30;;;;;;4854575;28;91632;-82
2023/12/15 04:22:25;;;;;;;1.30;1.02;;;21.00;54.40;;;;;;4872352;28;93947;-83
2023/12/15 04:24:51;;;;;;;1.10;1.00;;;21.00;54.30;;;;;;4872142;28;92682;-82
2023/12/15 04:27:16;;;;;;;1.92;1.10;;;21.00;54.20;;;;;;4859492;28;93549;-82
2023/12/15 04:29:42;;;;;;;2.08;1.00;;;21.00;54.30;;;;;;4857013;28;93961;-82
2023/12/15 04:32:08;;;;;;;0.93;0.88;;;21.00;54.40;;;;;;4875068;28;93486;-84
2023/12/15 04:34:34;;;;;;;1.55;1.15;;;21.00;54.50;;;;;;4859061;28;94843;-81
2023/12/15 04:37:00;;;;;;;1.33;0.90;;;21.00;54.30;;;;;;4858180;28;92697;-82
2023/12/15 04:39:26;;;;;;;1.20;1.05;;;20.90;54.20;;;;;;4860227;28;92850;-83
2023/12/15 04:41:51;;;;;;;0.80;0.80;;;20.90;54.20;;;;;;4855482;28;95062;-82
2023/12/15 04:44:17;;;;;;;1.02;0.93;;;20.90;54.20;;;;;;4874155;28;93636;-82
2023/12/15 04:46:43;;;;;;;1.15;1.00;;;20.90;54.30;;;;;;4873722;28;92415;-82
2023/12/15 04:49:08;;;;;;;1.27;1.17;;;20.90;54.20;;;;;;4874581;28;93089;-82
2023/12/15 04:51:34;;;;;;;1.67;1.20;;;20.90;54.40;;;;;;4856586;28;97344;-82
2023/12/15 04:54:00;;;;;;;1.40;1.00;;;20.90;54.30;;;;;;4872333;28;93086;-82
2023/12/15 04:56:25;;;;;;;1.38;1.20;;;20.90;54.40;;;;;;4857475;28;92589;-83
2023/12/15 04:58:51;;;;;;;1.27;1.10;;;20.90;54.30;;;;;;4871702;28;93296;-82
2023/12/15 05:01:17;;;;;;;1.77;1.00;;;20.90;54.40;;;;;;4874336;28;93842;-84
2023/12/15 05:03:43;;;;;;;1.10;1.00;;;20.80;54.30;;;;;;4871197;28;94159;-83
2023/12/15 05:06:20;;;;;;;1.52;1.27;;;20.80;54.30;;;;;;4874164;28;92517;-82
2023/12/15 05:08:46;;;;;;;1.20;1.00;;;20.80;54.30;;;;;;4855556;28;92242;-81
2023/12/15 05:11:12;;;;;;;1.73;1.10;;;20.80;54.40;;;;;;4876254;28;94297;-83
2023/12/15 05:13:38;;;;;;;1.00;0.90;;;20.80;54.50;;;;;;4875744;28;93321;-83
2023/12/15 05:16:05;;;;;;;1.05;0.95;;;20.80;54.40;;;;;;4869935;28;93525;-82
2023/12/15 05:18:30;;;;;;;1.05;0.95;;;20.80;54.40;;;;;;4856115;28;92494;-82
2023/12/15 05:20:56;;;;;;;1.40;1.20;;;20.80;54.40;;;;;;4858221;28;94286;-83
2023/12/15 05:23:21;;;;;;;1.20;1.00;;;20.80;54.40;;;;;;4859453;28;95937;-83
2023/12/15 05:25:47;;;;;;;1.60;1.00;;;20.80;54.50;;;;;;4853550;28;92677;-82
2023/12/15 05:28:13;;;;;;;0.88;0.88;;;20.80;54.30;;;;;;4858591;28;93063;-81
2023/12/15 05:30:38;;;;;;;1.23;1.10;;;20.80;54.40;;;;;;4878787;28;94041;-83
2023/12/15 05:33:04;;;;;;;1.30;1.00;;;20.80;54.40;;;;;;4865506;28;93412;-83
2023/12/15 05:35:29;;;;;;;0.73;0.73;;;20.80;54.30;;;;;;4873328;28;92517;-83
2023/12/15 05:37:55;;;;;;;1.42;1.13;;;20.80;54.40;;;;;;4874608;28;92583;-82
2023/12/15 05:40:21;;;;;;;1.42;1.17;;;20.80;54.50;;;;;;4873143;28;94742;-82
2023/12/15 05:42:47;;;;;;;1.40;1.00;;;20.80;54.50;;;;;;4855137;28;94434;-84
2023/12/15 05:45:13;;;;;;;1.38;1.20;;;20.80;54.50;;;;;;4876648;28;92722;-83
2023/12/15 05:47:39;;;;;;;1.20;1.08;;;20.70;54.50;;;;;;4856434;28;92602;-82
2023/12/15 05:50:06;;;;;;;1.52;1.05;;;20.70;54.40;;;;;;4874681;28;93823;-85
2023/12/15 05:52:31;;;;;;;0.98;0.90;;;20.70;54.30;;;;;;4871476;28;95272;-83
2023/12/15 05:54:57;;;;;;;1.10;1.00;;;20.70;54.30;;;;;;4874682;28;92063;-82
2023/12/15 05:57:22;;;;;;;1.08;0.93;;;20.70;54.50;;;;;;4873154;28;91902;-83
2023/12/15 05:59:48;;;;;;;1.02;0.80;;;20.70;54.40;;;;;;4854655;28;95625;-83
2023/12/15 06:02:14;;;;;;;0.80;0.80;;;20.70;54.40;;;;;;4874191;28;96359;-83
2023/12/15 06:04:39;;;;;;;1.35;1.00;;;20.70;54.50;;;;;;4854282;28;93384;-83
2023/12/15 06:07:05;;;;;;;1.67;1.13;;;20.70;54.60;;;;;;4873265;28;92355;-83
2023/12/15 06:09:30;;;;;;;1.13;1.02;;;20.70;54.50;;;;;;4841792;28;95748;-82
2023/12/15 06:11:56;;;;;;;1.00;0.90;;;20.70;54.50;;;;;;4873053;28;93620;-82
2023/12/15 06:14:22;;;;;;;2.13;0.95;;;20.70;54.40;;;;;;4872962;28;92777;-83
2023/12/15 06:16:48;;;;;;;1.48;0.90;;;20.70;54.50;;;;;;4872463;28;93233;-83
2023/12/15 06:19:14;;;;;;;1.50;0.98;;;20.60;54.40;;;;;;4856199;28;95927;-83
2023/12/15 06:21:40;;;;;;;1.27;1.00;;;20.60;54.40;;;;;;4872709;28;92380;-82
2023/12/15 06:24:06;;;;;;;1.83;0.98;;;20.60;55.00;;;;;;4877252;28;92568;-84
2023/12/15 06:26:31;;;;;;;1.80;0.95;;;20.60;54.50;;;;;;4872622;28;92939;-82
2023/12/15 06:28:57;;;;;;;1.00;0.85;;;20.60;54.50;;;;;;4873906;28;94127;-84
2023/12/15 06:31:27;;;;;;;0.98;0.93;;;20.60;54.60;;;;;;4873708;28;95304;-84
2023/12/15 06:33:53;;;;;;;1.77;1.40;;;20.60;54.40;;;;;;4855454;28;92603;-84
2023/12/15 06:36:18;;;;;;;1.55;1.05;;;20.60;54.50;;;;;;4871732;28;92444;-83
2023/12/15 06:38:45;;;;;;;2.53;1.33;;;20.60;54.40;;;;;;4871589;28;93208;-82
2023/12/15 06:41:13;;;;;;;1.73;1.40;;;20.60;54.50;;;;;;4868520;28;93360;-82
2023/12/15 06:43:43;;;;;;;1.58;1.30;;;20.60;54.50;;;;;;4872472;28;92510;-83
2023/12/15 06:46:10;;;;;;;2.60;1.20;;;20.60;54.40;;;;;;4876249;28;91825;-84
2023/12/15 06:48:35;;;;;;;1.50;1.40;;;20.60;54.20;;;;;;4873369;28;93363;-84
2023/12/15 06:51:01;;;;;;;4.97;1.70;;;20.60;53.80;;;;;;4873678;28;92956;-83
2023/12/15 06:53:27;;;;;;;4.25;1.98;;;20.60;53.60;;;;;;4869972;28;93753;-85
2023/12/15 06:55:53;;;;;;;2.13;1.50;;;20.60;54.10;;;;;;4871255;28;92439;-83
2023/12/15 06:58:19;;;;;;;3.15;1.58;;;20.60;54.30;;;;;;4850603;28;95050;-80
2023/12/15 07:00:45;;;;;;;3.47;2.00;;;20.70;54.50;;;;;;4873997;28;93445;-82
2023/12/15 07:03:11;;;;;;;2.05;1.55;;;20.70;54.70;;;;;;4875881;28;92630;-82
2023/12/15 07:05:36;;;;;;;2.45;1.15;;;20.70;54.60;;;;;;4874487;28;92553;-83
2023/12/15 07:08:03;;;;;;;1.92;1.00;;;20.70;54.40;;;;;;4872328;28;93197;-88
2023/12/15 07:10:29;;;;;;;2.28;1.40;;;20.80;54.60;;;;;;4856003;28;96360;-82
2023/12/15 07:12:54;;;;;;;2.47;1.50;;;20.80;54.60;;;;;;4856983;28;92369;-82
2023/12/15 07:15:20;;;;;;;1.35;1.00;;;20.80;54.50;;;;;;4871239;28;92001;-84
2023/12/15 07:17:46;;;;;;;2.47;1.40;;;20.80;54.30;;;;;;4854000;28;96166;-85
2023/12/15 07:20:11;;;;;;;2.30;1.63;;;20.90;54.50;;;;;;4875282;28;94686;-85
2023/12/15 07:22:37;;;;;;;1.83;1.55;;;20.90;54.50;;;;;;4873471;28;93444;-84
2023/12/15 07:25:03;;;;;;;2.97;1.77;;;20.90;54.70;;;;;;4871355;28;92408;-83
2023/12/15 07:27:30;;;;;;;2.38;1.58;;;20.90;54.70;;;;;;4855485;28;96214;-85
2023/12/15 07:29:55;;;;;;;2.53;1.48;;;21.00;55.00;;;;;;4874992;28;92829;-84
2023/12/15 07:32:21;;;;;;;2.15;1.45;;;21.00;55.00;;;;;;4853701;28;92371;-82
2023/12/15 07:34:47;;;;;;;2.83;1.30;;;21.00;55.00;;;;;;4878829;28;92628;-85
2023/12/15 07:37:13;;;;;;;2.97;1.30;;;21.00;54.80;;;;;;4873907;28;94325;-81
2023/12/15 07:39:38;;;;;;;1.90;1.48;;;21.00;54.60;;;;;;4874493;28;93877;-82
2023/12/15 07:42:04;;;;;;;3.40;1.80;;;21.00;55.00;;;;;;4872499;28;93012;-83
2023/12/15 07:44:30;;;;;;;3.15;1.58;;;21.10;54.80;;;;;;4874173;28;92349;-82
2023/12/15 07:46:56;;;;;;;2.00;1.52;;;21.20;54.90;;;;;;4875864;28;92834;-82
2023/12/15 07:49:23;;;;;;;2.65;1.35;;;21.30;54.70;;;;;;4881365;28;94764;-83
2023/12/15 07:51:49;;;;;;;3.95;1.42;;;21.40;54.80;;;;;;4888938;28;92161;-86
2023/12/15 07:54:15;;;;;;;3.13;1.80;;;21.50;54.70;;;;;;4869797;28;92822;-87
2023/12/15 07:56:42;;;;;;;3.60;1.40;;;21.50;54.60;;;;;;4868004;28;95782;-83
2023/12/15 07:59:08;;;;;;;1.98;1.25;;;21.50;54.50;;;;;;4888958;28;92301;-83
2023/12/15 08:01:34;;;;;;;1.55;1.33;;;21.50;54.40;;;;;;4882206;28;92268;-84
2023/12/15 08:04:00;;;;;;;2.70;1.40;;;21.50;54.40;;;;;;4867824;28;92466;-85
2023/12/15 08:06:26;;;;;;;1.77;1.20;;;21.60;54.30;;;;;;4883033;28;93321;-87
2023/12/15 08:08:52;;;;;;;5.20;1.60;;;21.60;54.40;;;;;;4861704;28;94631;-86
2023/12/15 08:11:18;;;;;;;4.50;1.83;;;21.60;53.80;;;;;;4880031;28;92352;-83
2023/12/15 08:13:44;;;;;;;4.47;1.80;;;21.70;53.90;;;;;;4882529;28;92695;-86
2023/12/15 08:16:11;;;;;;;3.13;1.83;;;21.70;53.70;;;;;;4881016;28;93663;-84
2023/12/15 08:18:37;;;;;;;2.92;1.60;;;21.80;53.90;;;;;;4861795;28;96836;-80
2023/12/15 08:21:03;;;;;;;37.53;8.57;;;21.80;53.70;;;;;;4850344;28;93059;-82
2023/12/15 08:23:29;;;;;;;31.98;6.30;;;21.80;53.70;;;;;;4865549;28;92106;-86
2023/12/15 08:25:55;;;;;;;27.55;6.95;;;21.80;53.40;;;;;;4853872;28;96420;-84
2023/12/15 08:28:20;;;;;;;30.13;7.00;;;21.90;53.90;;;;;;4857340;28;93069;-83
2023/12/15 08:30:48;;;;;;;31.77;7.72;;;21.90;54.20;;;;;;4856057;28;93536;-82
2023/12/15 08:33:15;;;;;;;32.45;7.32;;;21.90;54.50;;;;;;4872988;28;92404;-84
2023/12/15 08:35:40;;;;;;;40.88;7.90;;;21.90;54.50;;;;;;4875210;28;93664;-81
2023/12/15 08:38:06;;;;;;;28.13;7.28;;;21.90;54.50;;;;;;4875231;28;93394;-81
2023/12/15 08:40:32;;;;;;;28.27;6.32;;;21.90;54.90;;;;;;4876699;28;93216;-83
2023/12/15 08:42:57;;;;;;;27.13;7.43;;;21.90;54.90;;;;;;4876612;28;92247;-81
2023/12/15 08:45:23;;;;;;;24.70;7.07;;;22.00;54.40;;;;;;4872597;28;93009;-83
2023/12/15 08:47:49;;;;;;;23.77;6.50;;;22.00;54.80;;;;;;4861813;28;97175;-83
2023/12/15 08:50:15;;;;;;;22.67;6.32;;;22.10;54.80;;;;;;4876764;28;93006;-84
2023/12/15 08:52:40;;;;;;;18.90;5.63;;;22.10;55.30;;;;;;4871049;28;92615;-81
2023/12/15 08:55:07;;;;;;;20.25;6.03;;;22.20;55.20;;;;;;4870579;28;94996;-81
2023/12/15 08:57:33;;;;;;;18.38;6.22;;;22.20;55.30;;;;;;4871706;28;93867;-81
2023/12/15 08:59:59;;;;;;;21.67;6.50;;;22.20;55.00;;;;;;4874010;28;92526;-82
2023/12/15 09:02:25;;;;;;;18.67;6.45;;;22.30;54.90;;;;;;4854779;28;92641;-80
2023/12/15 09:04:51;;;;;;;18.58;6.25;;;22.30;55.60;;;;;;4876413;28;93564;-84
2023/12/15 09:07:17;;;;;;;20.50;6.28;;;22.40;54.90;;;;;;4875211;28;92820;-83
2023/12/15 09:09:43;;;;;;;20.73;6.82;;;22.40;54.60;;;;;;4870089;28;92506;-86
2023/12/15 09:12:10;;;;;;;19.15;6.18;;;22.40;54.90;;;;;;4875193;28;91560;-84
2023/12/15 09:14:37;;;;;;;21.80;6.53;;;22.40;55.30;;;;;;4870456;28;93515;-85
2023/12/15 09:17:03;;;;;;;21.48;8.18;;;22.40;55.70;;;;;;4874042;28;93697;-81
2023/12/15 09:19:29;;;;;;;17.90;6.68;;;22.40;56.60;;;;;;4874582;28;93708;-82
2023/12/15 09:21:56;;;;;;;16.15;5.45;;;22.40;56.60;;;;;;4868064;28;92458;-81
2023/12/15 09:24:22;;;;;;;16.15;5.85;;;22.50;56.50;;;;;;4870691;28;93744;-80
2023/12/15 09:26:47;;;;;;;18.38;6.82;;;22.40;56.80;;;;;;4872416;28;92799;-81
2023/12/15 09:29:14;;;;;;;15.07;5.85;;;22.40;56.00;;;;;;4856669;28;92487;-87
2023/12/15 09:31:40;;;;;;;18.70;7.25;;;22.50;56.40;;;;;;4869327;28;92411;-82
2023/12/15 09:34:06;;;;;;;17.80;6.35;;;22.50;56.70;;;;;;4874424;28;92646;-80
2023/12/15 09:36:32;;;;;;;19.17;7.28;;;22.50;56.70;;;;;;4874601;28;92068;-85
2023/12/15 09:38:57;;;;;;;22.13;7.45;;;22.50;56.70;;;;;;4858225;28;92297;-84
2023/12/15 09:41:23;;;;;;;18.13;5.93;;;22.50;56.90;;;;;;4871248;28;92725;-84
2023/12/15 09:43:50;;;;;;;16.58;6.78;;;22.50;57.10;;;;;;4870560;28;93872;-79
2023/12/15 09:46:16;;;;;;;17.13;5.53;;;22.50;57.10;;;;;;4871052;28;94480;-78
2023/12/15 09:48:42;;;;;;;19.80;6.55;;;22.50;57.20;;;;;;4873909;28;92852;-80
2023/12/15 09:51:12;;;;;;;14.52;6.22;;;22.50;57.00;;;;;;4872868;28;92383;-81
2023/12/15 09:53:38;;;;;;;15.82;5.85;;;22.50;56.90;;;;;;4877414;28;93639;-86
2023/12/15 09:56:05;;;;;;;11.70;5.60;;;22.80;61.40;;;;;;4860473;28;96847;-86
2023/12/15 09:58:31;;;;;;;12.40;5.72;;;22.80;58.50;;;;;;4879055;28;92622;-87
2023/12/15 10:00:57;;;;;;;15.63;5.65;;;22.90;57.00;;;;;;4862400;28;92023;-90
2023/12/15 10:03:23;;;;;;;13.43;6.13;;;22.90;56.70;;;;;;4859136;28;95070;-89
2023/12/15 10:05:49;;;;;;;19.63;6.63;;;22.90;56.50;;;;;;4873582;28;96437;-90
2023/12/15 10:08:15;;;;;;;31.45;10.70;;;22.90;56.50;;;;;;4860942;28;93291;-91
2023/12/15 10:10:41;;;;;;;23.23;9.35;;;22.90;57.50;;;;;;4855674;28;92816;-86
2023/12/15 10:13:07;;;;;;;22.15;9.18;;;22.80;56.90;;;;;;4859022;28;93863;-92
2023/12/15 10:15:32;;;;;;;24.65;9.05;;;22.80;56.60;;;;;;4874328;28;93761;-87
2023/12/15 10:17:58;;;;;;;21.33;7.68;;;22.80;55.10;;;;;;4873687;28;92015;-89
2023/12/15 10:20:24;;;;;;;23.98;8.77;;;22.70;54.80;;;;;;4876182;28;92957;-82
2023/12/15 10:23:05;;;;;;;19.48;8.02;;;22.70;55.70;;;;;;4874244;28;93583;-89
2023/12/15 10:25:33;;;;;;;15.90;7.22;;;22.70;54.60;;;;;;4861310;28;94855;-86
2023/12/15 10:27:59;;;;;;;18.23;6.55;;;22.70;55.20;;;;;;4879996;28;92553;-87
2023/12/15 10:30:25;;;;;;;18.10;8.02;;;22.80;55.30;;;;;;4878338;28;93394;-86
2023/12/15 10:32:54;;;;;;;12.40;6.72;;;22.80;57.60;;;;;;4875809;28;94984;-81
2023/12/15 10:35:25;;;;;;;18.02;7.20;;;22.70;57.10;;;;;;4876997;28;93033;-82
2023/12/15 10:37:52;;;;;;;16.83;7.95;;;22.70;60.80;;;;;;4873757;28;92905;-86
2023/12/15 10:40:18;;;;;;;18.27;7.05;;;22.70;59.60;;;;;;4877107;28;91975;-87
2023/12/15 10:42:44;;;;;;;15.38;7.45;;;22.60;58.40;;;;;;4876841;28;92702;-89
2023/12/15 10:45:10;;;;;;;15.63;7.07;;;22.60;57.20;;;;;;4845532;28;92741;-85
2023/12/15 10:47:37;;;;;;;18.95;7.82;;;22.60;56.20;;;;;;4874549;28;92556;-87
2023/12/15 10:50:03;;;;;;;15.25;6.72;;;22.60;56.10;;;;;;4877618;28;92138;-87
2023/12/15 10:52:33;;;;;;;13.10;6.28;;;22.60;56.30;;;;;;4875140;28;94516;-85
2023/12/15 10:55:02;;;;;;;15.82;6.65;;;22.60;55.70;;;;;;4874549;28;93002;-86
2023/12/15 10:57:30;;;;;;;11.05;6.07;;;22.60;55.60;;;;;;4844260;28;92918;-86
2023/12/15 10:59:58;;;;;;;13.43;6.05;;;22.60;55.40;;;;;;4875854;28;92396;-88
2023/12/15 11:02:27;;;;;;;12.45;6.35;;;22.60;55.50;;;;;;4874080;28;93352;-84
2023/12/15 11:04:55;;;;;;;11.23;5.20;;;22.60;55.40;;;;;;4856856;28;95247;-87
2023/12/15 11:07:22;;;;;;;13.52;5.78;;;22.60;55.20;;;;;;4856356;28;93189;-84
2023/12/15 11:09:48;;;;;;;11.45;5.72;;;22.60;55.10;;;;;;4876750;28;93494;-88
2023/12/15 11:12:30;;;;;;;18.50;6.25;;;22.60;55.10;;;;;;4877250;28;93367;-88
2023/12/15 11:15:07;;;;;;;13.75;5.93;;;22.60;55.20;;;;;;4857275;28;97698;-84
2023/12/15 11:17:33;;;;;;;11.23;5.43;;;22.50;55.10;;;;;;4872595;28;92482;-86
2023/12/15 11:20:11;;;;;;;12.73;6.03;;;22.50;54.80;;;;;;4870869;28;92587;-86
2023/12/15 11:22:55;;;;;;;13.77;6.25;;;22.50;54.90;;;;;;4875273;28;94853;-90
2023/12/15 11:25:25;;;;;;;9.77;5.70;;;22.50;54.90;;;;;;4876656;28;96539;-86
2023/12/15 11:28:01;;;;;;;12.30;5.85;;;22.50;54.60;;;;;;4877496;28;92128;-87
2023/12/15 11:30:31;;;;;;;13.70;6.25;;;22.50;54.60;;;;;;4874925;28;92613;-83
2023/12/15 11:32:57;;;;;;;14.10;6.25;;;22.50;54.60;;;;;;4855046;28;96942;-89
2023/12/15 11:35:32;;;;;;;10.52;6.05;;;22.50;54.70;;;;;;4874335;28;93350;-84
2023/12/15 11:37:58;;;;;;;11.93;5.07;;;22.60;54.90;;;;;;4877736;28;92665;-84
2023/12/15 11:40:30;;;;;;;9.18;5.05;;;22.60;54.90;;;;;;4876498;28;91623;-83
2023/12/15 11:42:58;;;;;;;10.23;5.05;;;22.60;54.90;;;;;;4875582;28;93568;-83
2023/12/15 11:45:29;;;;;;;10.40;5.13;;;22.60;54.80;;;;;;4862273;28;93462;-84
2023/12/15 11:47:54;;;;;;;8.93;4.03;;;22.60;54.70;;;;;;4876895;28;93491;-83
2023/12/15 11:50:21;;;;;;;10.25;4.93;;;22.70;54.80;;;;;;4876067;28;92752;-87
2023/12/15 11:52:48;;;;;;;10.38;4.45;;;22.70;54.70;;;;;;4878039;28;93771;-85
2023/12/15 11:55:15;;;;;;;8.18;4.72;;;22.70;54.70;;;;;;4876845;28;92756;-86
2023/12/15 11:57:40;;;;;;;8.68;4.75;;;22.70;54.70;;;;;;4876919;28;92780;-84
2023/12/15 12:00:08;;;;;;;9.18;4.32;;;22.70;54.70;;;;;;4879186;28;93139;-83
2023/12/15 12:02:34;;;;;;;10.52;4.85;;;22.70;54.60;;;;;;4861267;28;93875;-81
2023/12/15 12:05:00;;;;;;;12.70;4.60;;;22.70;54.70;;;;;;4877496;28;92177;-86
2023/12/15 12:07:25;;;;;;;7.65;4.63;;;22.80;54.60;;;;;;4879823;28;92661;-84
2023/12/15 12:09:51;;;;;;;8.25;4.00;;;22.80;54.50;;;;;;4876944;28;92317;-86
2023/12/15 12:12:17;;;;;;;8.77;4.25;;;22.80;54.50;;;;;;4878478;28;96653;-87
2023/12/15 12:14:43;;;;;;;10.23;4.78;;;22.80;54.30;;;;;;4880360;28;94096;-85
2023/12/15 12:17:10;;;;;;;8.77;4.60;;;22.90;54.30;;;;;;4881509;28;92427;-84
2023/12/15 12:19:43;;;;;;;7.70;4.80;;;22.90;54.20;;;;;;4881052;28;92769;-83
2023/12/15 12:22:10;;;;;;;7.75;4.22;;;22.80;54.20;;;;;;4861512;28;96643;-88
2023/12/15 12:24:37;;;;;;;9.90;4.50;;;22.90;54.10;;;;;;4880342;28;93984;-84
2023/12/15 12:27:05;;;;;;;6.45;4.22;;;22.90;54.10;;;;;;4881227;28;92353;-85
2023/12/15 12:29:31;;;;;;;8.60;4.32;;;22.90;54.00;;;;;;4881061;28;91430;-83
2023/12/15 12:31:57;;;;;;;8.30;4.70;;;23.00;54.10;;;;;;4875109;28;93101;-86
2023/12/15 12:34:23;;;;;;;6.93;3.70;;;23.00;54.00;;;;;;4881074;28;92868;-83
2023/12/15 12:36:49;;;;;;;7.10;3.63;;;23.00;54.00;;;;;;4881250;28;93855;-87
2023/12/15 12:39:20;;;;;;;7.55;4.13;;;23.00;53.90;;;;;;4878411;28;92840;-85
2023/12/15 12:41:46;;;;;;;5.25;3.55;;;23.00;54.00;;;;;;4878738;28;93344;-84